Time;durP1;ratioP1;P1;durP2;ratioP2;P2;SDS_P1;SDS_P2;PMS_P1;PMS_P2;Temp;Humidity;BMP_temperature;BMP_pressure;BME280_temperature;BME280_humidity;BME280_pressure;Samples;Min_cycle;Max_cycle;Signal;HPM_P1;HPM_P2
2023/07/10 00:01:17;;;;;;;;;;;;;;;15.23;71.79;101810.58;108959;1259;65663;-88
2023/07/10 00:03:44;;;;;;;;;;;;;;;15.19;71.97;101806.94;108787;1260;124717;-87
2023/07/10 00:06:12;;;;;;;;;;;;;;;15.15;72.06;101804.92;108899;1262;59603;-88
2023/07/10 00:08:39;;;;;;;;;;;;;;;15.12;72.27;101805.38;108688;1259;125654;-88
2023/07/10 00:11:26;;;;;;;;;;;;;;;15.10;72.43;101805.31;108874;1263;75130;-90
2023/07/10 00:14:00;;;;;;;;;;;;;;;15.08;72.57;101808.98;108727;1259;125337;-89
2023/07/10 00:16:36;;;;;;;;;;;;;;;15.07;72.70;101815.86;108883;1260;71438;-89
2023/07/10 00:19:08;;;;;;;;;;;;;;;15.05;72.87;101819.35;108859;1260;59408;-89
2023/07/10 00:21:41;;;;;;;;;;;;;;;15.03;72.92;101820.73;108852;1260;124798;-88
2023/07/10 00:24:08;;;;;;;;;;;;;;;15.02;72.95;101821.02;108885;1260;72417;-88
2023/07/10 00:26:38;;;;;;;;;;;;;;;15.00;73.14;101819.22;108850;1261;125329;-89
2023/07/10 00:29:16;;;;;;;;;;;;;;;14.97;73.13;101816.34;108862;1260;71212;-89
2023/07/10 00:32:13;;;;;;;;;;;;;;;14.95;73.13;101813.65;108712;1264;124954;-90
2023/07/10 00:35:03;;;;;;;;;;;;;;;14.93;73.20;101815.01;108515;1266;59268;-89
2023/07/10 00:37:32;;;;;;;;;;;;;;;14.92;73.27;101813.41;108376;1271;74607;-89
2023/07/10 00:40:00;;;;;;;;;;;;;;;14.92;73.37;101809.33;108411;1266;67031;-89
2023/07/10 00:42:27;;;;;;;;;;;;;;;14.93;73.50;101806.35;108445;1267;72816;-89
2023/07/10 00:44:57;;;;;;;;;;;;;;;14.94;73.50;101803.00;108461;1269;124496;-88
2023/07/10 00:47:27;;;;;;;;;;;;;;;14.97;73.56;101806.08;108385;1267;59636;-89
2023/07/10 00:49:56;;;;;;;;;;;;;;;14.98;73.46;101805.40;108341;1267;124766;-89
2023/07/10 00:52:24;;;;;;;;;;;;;;;14.99;73.49;101804.70;108495;1267;67469;-89
2023/07/10 00:55:05;;;;;;;;;;;;;;;14.98;73.28;101807.69;108544;1266;71743;-88
2023/07/10 00:57:34;;;;;;;;;;;;;;;14.95;73.39;101810.64;108309;1267;124098;-88
2023/07/10 01:00:23;;;;;;;;;;;;;;;14.92;73.28;101807.04;108522;1265;58966;-88
2023/07/10 01:02:58;;;;;;;;;;;;;;;14.88;73.31;101811.52;108374;1267;124195;-88
2023/07/10 01:05:31;;;;;;;;;;;;;;;14.85;73.22;101810.21;108384;1272;65896;-89
2023/07/10 01:08:04;;;;;;;;;;;;;;;14.81;73.35;101813.11;108381;1267;124399;-88
2023/07/10 01:10:31;;;;;;;;;;;;;;;14.76;73.31;101813.16;108439;1267;59021;-88
2023/07/10 01:12:59;;;;;;;;;;;;;;;14.72;73.35;101817.14;108919;1260;60264;-88
2023/07/10 01:15:26;;;;;;;;;;;;;;;14.67;73.44;101821.08;108784;1259;124397;-87
2023/07/10 01:17:54;;;;;;;;;;;;;;;14.62;73.58;101824.65;108812;1261;66976;-87
2023/07/10 01:20:22;;;;;;;;;;;;;;;14.58;73.72;101827.38;108719;1260;125081;-87
2023/07/10 01:22:55;;;;;;;;;;;;;;;14.54;73.88;101826.35;108784;1260;59615;-87
2023/07/10 01:25:24;;;;;;;;;;;;;;;14.51;73.98;101827.70;108802;1261;59062;-87
2023/07/10 01:27:52;;;;;;;;;;;;;;;14.50;73.99;101833.86;108781;1259;124819;-88
2023/07/10 01:30:26;;;;;;;;;;;;;;;14.49;74.13;101837.89;108840;1260;67075;-88
2023/07/10 01:32:54;;;;;;;;;;;;;;;14.48;74.23;101840.00;108604;1260;124943;-88
2023/07/10 01:35:30;;;;;;;;;;;;;;;14.47;74.33;101841.20;108785;1259;59321;-87
2023/07/10 01:37:58;;;;;;;;;;;;;;;14.46;74.37;101839.05;108753;1260;125292;-87
2023/07/10 01:40:31;;;;;;;;;;;;;;;14.45;74.46;101834.77;108827;1260;74506;-88
2023/07/10 01:43:02;;;;;;;;;;;;;;;14.45;74.59;101830.18;108926;1260;67137;-93
2023/07/10 01:45:39;;;;;;;;;;;;;;;14.45;74.61;101821.70;108795;1260;125040;-93
2023/07/10 01:48:06;;;;;;;;;;;;;;;14.44;74.66;101810.90;108876;1259;59347;-87
2023/07/10 01:50:34;;;;;;;;;;;;;;;14.43;74.60;101799.23;108811;1260;124746;-94
2023/07/10 01:53:01;;;;;;;;;;;;;;;14.44;74.64;101794.83;108845;1261;74589;-93
2023/07/10 01:55:29;;;;;;;;;;;;;;;14.44;74.74;101787.95;108830;1259;66915;-94
2023/07/10 01:58:00;;;;;;;;;;;;;;;14.44;74.77;101791.14;108801;1260;124521;-93
2023/07/10 02:04:17;;;;;;;;;;;;;;;14.47;74.73;101798.97;108662;1264;124680;-96
2023/07/10 02:07:50;;;;;;;;;;;;;;;14.47;74.67;101799.71;108650;1267;74410;-95
2023/07/10 02:11:02;;;;;;;;;;;;;;;14.47;74.67;101800.05;108383;1267;65004;-95
2023/07/10 02:17:57;;;;;;;;;;;;;;;;;;;;;
2023/07/10 02:24:31;;;;;;;;;;;;;;;14.52;74.79;101792.22;108681;1267;74522;-96
2023/07/10 02:31:42;;;;;;;;;;;;;;;14.58;74.78;101801.43;108562;1269;71412;-95
2023/07/10 02:34:52;;;;;;;;;;;;;;;14.57;74.73;101802.48;107364;1280;60609;-94
2023/07/10 02:44:32;;;;;;;;;;;;;;;14.68;74.93;101809.98;107465;1276;123788;-94
2023/07/10 02:47:40;;;;;;;;;;;;;;;14.73;74.89;101807.98;107645;1274;74079;-94
2023/07/10 02:50:36;;;;;;;;;;;;;;;14.78;74.83;101804.38;107607;1274;123810;-95
2023/07/10 02:54:23;;;;;;;;;;;;;;;14.85;74.65;101806.86;107640;1276;61491;-95
2023/07/10 02:57:59;;;;;;;;;;;;;;;14.94;74.66;101809.19;107026;1282;124800;-96
2023/07/10 03:01:35;;;;;;;;;;;;;;;15.05;74.67;101813.52;107053;1283;68004;-94
2023/07/10 03:07:31;;;;;;;;;;;;;;;15.29;74.50;101811.77;107245;1280;59693;-95
2023/07/10 03:10:11;;;;;;;;;;;;;;;15.39;74.38;101815.00;107122;1279;125060;-95
2023/07/10 03:12:40;;;;;;;;;;;;;;;15.52;74.47;101816.69;107768;1274;74750;-94
2023/07/10 03:15:50;;;;;;;;;;;;;;;15.67;74.27;101817.38;107525;1274;124381;-95
2023/07/10 03:23:08;;;;;;;;;;;;;;;16.12;74.11;101815.30;106467;1288;59056;-95
2023/07/10 03:26:35;;;;;;;;;;;;;;;16.35;73.89;101815.55;106510;1286;124350;-95
2023/07/10 03:29:24;;;;;;;;;;;;;;;16.58;73.86;101813.14;106400;1286;76084;-93
2023/07/10 03:31:57;;;;;;;;;;;;;;;17.11;74.97;101814.18;106475;1281;67055;-94
2023/07/10 03:34:24;;;;;;;;;;;;;;;18.60;76.31;101812.61;106755;1281;124088;-93
2023/07/10 03:36:53;;;;;;;;;;;;;;;20.22;74.71;101806.23;106960;1281;59115;-93
2023/07/10 03:39:45;;;;;;;;;;;;;;;21.15;71.21;101805.22;106895;1280;124294;-93
2023/07/10 03:43:08;;;;;;;;;;;;;;;20.95;68.38;101812.92;106463;1282;73204;-94
2023/07/10 03:45:57;;;;;;;;;;;;;;;20.77;67.76;101812.58;106892;1280;124110;-94
2023/07/10 03:48:59;;;;;;;;;;;;;;;20.71;67.56;101813.12;107222;1279;75000;-94
2023/07/10 03:51:39;;;;;;;;;;;;;;;20.84;67.22;101813.83;106870;1282;124187;-93
2023/07/10 03:54:14;;;;;;;;;;;;;;;21.26;67.63;101816.62;106632;1285;60065;-93
2023/07/10 03:56:47;;;;;;;;;;;;;;;22.13;67.34;101817.20;107237;1276;124197;-94
2023/07/10 03:59:14;;;;;;;;;;;;;;;23.22;67.15;101822.23;108060;1270;67201;-94
2023/07/10 04:01:43;;;;;;;;;;;;;;;24.85;66.37;101820.38;108137;1270;72776;-96
2023/07/10 04:04:28;;;;;;;;;;;;;;;26.63;64.59;101819.25;108114;1269;124252;-96
2023/07/10 04:07:26;;;;;;;;;;;;;;;28.20;61.42;101816.13;108380;1269;60990;-94
2023/07/10 04:13:59;;;;;;;;;;;;;;;30.14;55.67;101815.80;108462;1270;67171;-96
2023/07/10 04:16:58;;;;;;;;;;;;;;;30.86;53.98;101813.94;108542;1269;64187;-93
2023/07/10 04:19:31;;;;;;;;;;;;;;;31.64;52.76;101811.54;108393;1269;59023;-88
2023/07/10 04:22:06;;;;;;;;;;;;;;;31.79;50.93;101815.25;108163;1270;122977;-89
2023/07/10 04:31:59;;;;;;;;;;;;;;;31.64;48.85;101836.24;108378;1269;63730;-90
2023/07/10 04:34:34;;;;;;;;;;;;;;;31.61;48.44;101842.76;108650;1267;58963;-92
2023/07/10 04:37:02;;;;;;;;;;;;;;;32.18;48.84;101836.02;108440;1267;59177;-89
2023/07/10 04:39:57;;;;;;;;;;;;;;;32.93;47.21;101835.05;108145;1268;124200;-88
2023/07/10 04:42:30;;;;;;;;;;;;;;;33.46;46.66;101838.63;108391;1267;59009;-87
2023/07/10 04:44:57;;;;;;;;;;;;;;;34.56;46.05;101843.75;108372;1260;124148;-90
2023/07/10 04:47:25;;;;;;;;;;;;;;;34.89;43.87;101842.77;108823;1260;59021;-92
2023/07/10 04:49:54;;;;;;;;;;;;;;;34.43;43.14;101842.20;108720;1260;58910;-87
2023/07/10 04:52:27;;;;;;;;;;;;;;;34.34;43.33;101847.45;108658;1262;124034;-92
2023/07/10 04:54:55;;;;;;;;;;;;;;;34.77;42.40;101846.01;108723;1259;58974;-89
2023/07/10 04:57:29;;;;;;;;;;;;;;;34.66;42.30;101843.40;108781;1259;124324;-88
2023/07/10 05:00:05;;;;;;;;;;;;;;;34.95;41.81;101843.65;108877;1259;59368;-89
2023/07/10 05:02:39;;;;;;;;;;;;;;;34.64;40.90;101840.76;108947;1258;124353;-91
2023/07/10 05:05:39;;;;;;;;;;;;;;;33.77;40.70;101839.85;109007;1259;65794;-91
2023/07/10 05:08:08;;;;;;;;;;;;;;;33.71;41.50;101836.96;108984;1259;59104;-91
2023/07/10 05:10:35;;;;;;;;;;;;;;;34.31;41.04;101833.59;108810;1259;65166;-91
2023/07/10 05:13:03;;;;;;;;;;;;;;;34.35;40.14;101836.63;108890;1259;59023;-93
2023/07/10 05:16:03;;;;;;;;;;;;;;;34.57;40.35;101834.98;108877;1259;124033;-94
2023/07/10 05:18:32;;;;;;;;;;;;;;;35.41;40.02;101838.45;108973;1259;64573;-92
2023/07/10 05:30:49;;;;;;;;;;;;;;;35.86;37.35;101829.63;109044;1259;58907;-94
2023/07/10 05:43:52;;;;;;;;;;;;;;;38.56;34.50;101830.35;109077;1259;58906;-91
2023/07/10 05:46:19;;;;;;;;;;;;;;;37.74;33.55;101830.65;108814;1259;123108;-89
2023/07/10 05:48:47;;;;;;;;;;;;;;;35.94;33.94;101829.77;108849;1259;65991;-88
2023/07/10 05:51:14;;;;;;;;;;;;;;;34.23;34.61;101829.77;108731;1259;124373;-87
2023/07/10 05:53:44;;;;;;;;;;;;;;;32.34;35.18;101831.77;108822;1259;62814;-86
2023/07/10 05:56:11;;;;;;;;;;;;;;;30.64;36.52;101828.73;108788;1259;124166;-89
2023/07/10 05:58:40;;;;;;;;;;;;;;;29.22;37.67;101824.48;108827;1259;59893;-90
2023/07/10 06:01:08;;;;;;;;;;;;;;;28.21;39.03;101825.31;108828;1259;74448;-88
2023/07/10 06:03:35;;;;;;;;;;;;;;;27.54;40.19;101832.00;108778;1260;124056;-89
2023/07/10 06:06:18;;;;;;;;;;;;;;;26.97;40.86;101827.25;108989;1261;71529;-91
2023/07/10 06:08:45;;;;;;;;;;;;;;;26.51;42.24;101831.98;108803;1259;124511;-89
2023/07/10 06:11:12;;;;;;;;;;;;;;;26.14;42.96;101829.77;108893;1259;60234;-91
2023/07/10 06:16:53;;;;;;;;;;;;;;;25.30;42.94;101818.21;108951;1259;65025;-88
2023/07/10 06:19:21;;;;;;;;;;;;;;;25.16;43.76;101815.20;108840;1259;71427;-90
2023/07/10 06:21:49;;;;;;;;;;;;;;;24.99;44.26;101816.05;108644;1259;124148;-88
2023/07/10 06:24:38;;;;;;;;;;;;;;;24.91;44.94;101822.48;108781;1259;59938;-93
2023/07/10 06:27:26;;;;;;;;;;;;;;;24.67;45.15;101821.46;108823;1258;124008;-93
2023/07/10 06:29:56;;;;;;;;;;;;;;;24.39;45.63;101819.89;108901;1259;67162;-94
2023/07/10 06:32:23;;;;;;;;;;;;;;;24.18;45.44;101817.52;108756;1259;124502;-89
2023/07/10 06:34:50;;;;;;;;;;;;;;;24.09;45.58;101814.60;108876;1259;59081;-90
2023/07/10 06:37:17;;;;;;;;;;;;;;;23.92;45.71;101812.34;108794;1259;59219;-89
2023/07/10 06:40:02;;;;;;;;;;;;;;;23.88;46.53;101810.79;108808;1259;124263;-91
2023/07/10 06:42:29;;;;;;;;;;;;;;;23.82;46.85;101814.25;108803;1259;67136;-92
2023/07/10 06:45:10;;;;;;;;;;;;;;;23.73;47.38;101809.50;108789;1259;123304;-94
2023/07/10 06:47:42;;;;;;;;;;;;;;;23.73;47.62;101816.30;108762;1259;58965;-91
2023/07/10 06:50:09;;;;;;;;;;;;;;;23.80;47.81;101815.34;108748;1259;60135;-91
2023/07/10 06:52:40;;;;;;;;;;;;;;;23.88;47.86;101814.35;108792;1259;122944;-93
2023/07/10 06:55:12;;;;;;;;;;;;;;;23.98;48.06;101813.52;108800;1259;65691;-93
2023/07/10 06:57:40;;;;;;;;;;;;;;;23.98;48.32;101813.14;108714;1259;124071;-94
2023/07/10 07:00:08;;;;;;;;;;;;;;;24.08;48.63;101811.58;108805;1259;58912;-89
2023/07/10 07:02:36;;;;;;;;;;;;;;;24.20;48.39;101808.88;108657;1259;124703;-90
2023/07/10 07:05:04;;;;;;;;;;;;;;;24.22;47.88;101808.86;108710;1259;73290;-92
2023/07/10 07:07:31;;;;;;;;;;;;;;;24.21;47.34;101804.91;108769;1259;66063;-87
2023/07/10 07:09:58;;;;;;;;;;;;;;;24.22;47.72;101804.01;108749;1257;124593;-89
2023/07/10 07:12:25;;;;;;;;;;;;;;;24.36;47.93;101800.22;108749;1259;59211;-90
2023/07/10 07:14:59;;;;;;;;;;;;;;;24.46;47.74;101798.09;108905;1258;124322;-92
2023/07/10 07:17:33;;;;;;;;;;;;;;;24.36;47.67;101793.75;108924;1258;73160;-92
2023/07/10 07:20:01;;;;;;;;;;;;;;;24.35;47.69;101794.14;109015;1259;67112;-90
2023/07/10 07:22:28;;;;;;;;;;;;;;;24.28;47.37;101791.55;108748;1257;124472;-87
2023/07/10 07:24:54;;;;;;;;;;;;;;;24.22;47.46;101795.39;108832;1259;58936;-87
2023/07/10 07:27:22;;;;;;;;;;;;;;;24.18;47.54;101788.65;108726;1259;124159;-89
2023/07/10 07:29:50;;;;;;;;;;;;;;;24.17;47.25;101785.27;108830;1259;74375;-89
2023/07/10 07:32:18;;;;;;;;;;;;;;;24.16;46.68;101779.36;108679;1259;124590;-86
2023/07/10 07:34:45;;;;;;;;;;;;;;;24.12;46.80;101778.70;108692;1259;72547;-86
2023/07/10 07:37:12;;;;;;;;;;;;;;;24.18;46.72;101776.63;108804;1259;59128;-89
2023/07/10 07:39:41;;;;;;;;;;;;;;;24.24;46.57;101767.75;108812;1258;124173;-93
2023/07/10 07:42:14;;;;;;;;;;;;;;;24.32;46.79;101768.71;108899;1258;74419;-89
2023/07/10 07:44:41;;;;;;;;;;;;;;;24.29;46.52;101766.43;108753;1259;125120;-92
2023/07/10 07:47:10;;;;;;;;;;;;;;;24.25;46.25;101767.72;108774;1259;72746;-89
2023/07/10 07:49:37;;;;;;;;;;;;;;;24.28;45.49;101770.92;108826;1258;59384;-92
2023/07/10 07:52:11;;;;;;;;;;;;;;;24.34;45.57;101767.78;108790;1259;124371;-91
2023/07/10 07:54:38;;;;;;;;;;;;;;;24.39;45.92;101764.29;108930;1259;74589;-90
2023/07/10 07:57:14;;;;;;;;;;;;;;;24.43;46.28;101763.33;108909;1258;124188;-93
2023/07/10 07:59:41;;;;;;;;;;;;;;;24.53;46.37;101766.58;108840;1259;72502;-91
2023/07/10 08:02:08;;;;;;;;;;;;;;;24.63;45.94;101771.29;108866;1259;59016;-90
2023/07/10 08:04:38;;;;;;;;;;;;;;;24.64;45.70;101765.87;108851;1262;124532;-92
2023/07/10 08:07:07;;;;;;;;;;;;;;;24.60;45.70;101762.70;108831;1259;73461;-94
2023/07/10 08:09:50;;;;;;;;;;;;;;;24.51;45.51;101761.95;108758;1259;124502;-91
2023/07/10 08:12:18;;;;;;;;;;;;;;;24.42;45.70;101755.27;108862;1259;73751;-91
2023/07/10 08:14:45;;;;;;;;;;;;;;;24.40;45.80;101753.14;108715;1260;124608;-90
2023/07/10 08:17:18;;;;;;;;;;;;;;;24.41;45.89;101753.67;108843;1259;59274;-90
2023/07/10 08:19:45;;;;;;;;;;;;;;;24.45;46.04;101757.18;108878;1258;75781;-90
2023/07/10 08:22:13;;;;;;;;;;;;;;;24.52;45.70;101754.95;108810;1258;124313;-89
2023/07/10 08:24:44;;;;;;;;;;;;;;;24.46;44.45;101756.81;108945;1258;72632;-90
2023/07/10 08:27:13;;;;;;;;;;;;;;;24.33;44.55;101760.60;108790;1258;124808;-90
2023/07/10 08:30:00;;;;;;;;;;;;;;;24.23;44.72;101764.35;108856;1259;60203;-91
2023/07/10 08:32:27;;;;;;;;;;;;;;;24.14;44.82;101761.98;108770;1259;124675;-89
2023/07/10 08:34:55;;;;;;;;;;;;;;;24.05;44.69;101763.73;109000;1259;67070;-94
2023/07/10 08:37:26;;;;;;;;;;;;;;;24.08;44.25;101762.08;108873;1259;72943;-87
2023/07/10 08:40:05;;;;;;;;;;;;;;;24.03;43.67;101765.19;108716;1259;124242;-91
2023/07/10 08:42:33;;;;;;;;;;;;;;;24.00;43.62;101764.88;108941;1259;59050;-88
2023/07/10 08:45:02;;;;;;;;;;;;;;;23.97;43.54;101764.57;108833;1259;124220;-92
2023/07/10 08:47:32;;;;;;;;;;;;;;;23.91;43.81;101761.96;108847;1259;65641;-86
2023/07/10 08:49:59;;;;;;;;;;;;;;;23.95;43.80;101761.92;108896;1257;72759;-86
2023/07/10 08:52:32;;;;;;;;;;;;;;;23.94;43.34;101763.36;108802;1258;124250;-87
2023/07/10 08:54:59;;;;;;;;;;;;;;;23.87;43.48;101759.70;108841;1258;59995;-87
2023/07/10 08:57:35;;;;;;;;;;;;;;;23.88;43.88;101755.56;108739;1258;124561;-87
2023/07/10 09:00:06;;;;;;;;;;;;;;;24.00;43.65;101750.19;108722;1259;67090;-86
2023/07/10 09:02:48;;;;;;;;;;;;;;;24.07;43.24;101745.23;108779;1259;123373;-86
2023/07/10 09:05:19;;;;;;;;;;;;;;;24.15;42.93;101743.86;108748;1259;59488;-86
2023/07/10 09:07:48;;;;;;;;;;;;;;;24.24;42.66;101739.59;108844;1259;59994;-86
2023/07/10 09:10:21;;;;;;;;;;;;;;;24.32;42.43;101733.00;108629;1259;124459;-86
2023/07/10 09:12:52;;;;;;;;;;;;;;;24.39;42.31;101726.27;108688;1259;65542;-87
2023/07/10 09:15:39;;;;;;;;;;;;;;;24.46;41.94;101722.90;108707;1259;124349;-86
2023/07/10 09:18:10;;;;;;;;;;;;;;;24.50;41.84;101715.12;108847;1259;59008;-86
2023/07/10 09:20:37;;;;;;;;;;;;;;;24.56;42.03;101711.81;108630;1259;124969;-86
2023/07/10 09:23:24;;;;;;;;;;;;;;;24.61;41.58;101712.27;108716;1265;74536;-88
2023/07/10 09:26:12;;;;;;;;;;;;;;;24.53;41.32;101718.31;108834;1259;67111;-85
2023/07/10 09:28:43;;;;;;;;;;;;;;;24.50;41.48;101716.56;108824;1259;71844;-86
2023/07/10 09:31:09;;;;;;;;;;;;;;;24.56;41.23;101719.19;108759;1259;59106;-86
2023/07/10 09:33:43;;;;;;;;;;;;;;;24.59;41.19;101719.48;108760;1259;124632;-87
2023/07/10 09:36:17;;;;;;;;;;;;;;;24.62;41.03;101716.36;108737;1259;72834;-86
2023/07/10 09:38:46;;;;;;;;;;;;;;;24.60;40.88;101717.31;108745;1258;124518;-86
2023/07/10 09:41:17;;;;;;;;;;;;;;;24.59;40.56;101711.76;108812;1259;72846;-85
2023/07/10 09:43:48;;;;;;;;;;;;;;;24.57;40.68;101710.19;108682;1259;59043;-85
2023/07/10 09:46:15;;;;;;;;;;;;;;;24.53;40.38;101707.20;108630;1259;124308;-85
2023/07/10 09:48:44;;;;;;;;;;;;;;;24.48;40.30;101707.26;108836;1258;74439;-86
2023/07/10 09:51:12;;;;;;;;;;;;;;;24.44;40.12;101705.89;108711;1260;124217;-85
2023/07/10 09:53:46;;;;;;;;;;;;;;;24.36;40.26;101706.75;108841;1259;72762;-87
2023/07/10 09:56:27;;;;;;;;;;;;;;;24.36;40.42;101700.30;108787;1259;59096;-85
2023/07/10 09:58:54;;;;;;;;;;;;;;;24.42;40.62;101702.16;108798;1259;59354;-84
2023/07/10 10:01:25;;;;;;;;;;;;;;;24.42;40.61;101695.34;108692;1259;73344;-84
2023/07/10 10:03:52;;;;;;;;;;;;;;;24.36;40.67;101688.98;108745;1259;124742;-85
2023/07/10 10:06:23;;;;;;;;;;;;;;;24.34;40.76;101692.81;108708;1259;72570;-85
2023/07/10 10:08:51;;;;;;;;;;;;;;;24.29;40.69;101692.52;108595;1259;124608;-85
2023/07/10 10:11:18;;;;;;;;;;;;;;;24.25;40.69;101686.11;108797;1259;60207;-85
2023/07/10 10:13:49;;;;;;;;;;;;;;;24.27;40.90;101689.33;108838;1258;74740;-85
2023/07/10 10:16:35;;;;;;;;;;;;;;;24.38;41.00;101691.27;108778;1259;124607;-86
2023/07/10 10:19:04;;;;;;;;;;;;;;;24.43;40.47;101687.80;108830;1259;71917;-86
2023/07/10 10:21:32;;;;;;;;;;;;;;;24.31;40.44;101683.88;108628;1259;124513;-85
2023/07/10 10:24:04;;;;;;;;;;;;;;;24.26;40.38;101680.91;108663;1259;59186;-84
2023/07/10 10:26:41;;;;;;;;;;;;;;;24.27;40.46;101678.20;108665;1259;124958;-84
2023/07/10 10:29:24;;;;;;;;;;;;;;;24.30;40.31;101677.09;108692;1259;66821;-83
2023/07/10 10:31:56;;;;;;;;;;;;;;;24.28;40.40;101678.19;108692;1259;73001;-84
2023/07/10 10:34:42;;;;;;;;;;;;;;;24.38;40.46;101683.04;108580;1259;124910;-84
2023/07/10 10:37:15;;;;;;;;;;;;;;;24.45;40.31;101681.11;108794;1258;59123;-84
2023/07/10 10:39:47;;;;;;;;;;;;;;;24.44;40.42;101682.21;108639;1260;124299;-83
2023/07/10 10:42:19;;;;;;;;;;;;;;;24.50;40.36;101675.48;108601;1261;66250;-84
2023/07/10 10:44:52;;;;;;;;;;;;;;;24.56;40.06;101670.36;108628;1259;124768;-84
2023/07/10 10:47:23;;;;;;;;;;;;;;;24.55;40.15;101668.59;108627;1259;59409;-83
2023/07/10 10:49:59;;;;;;;;;;;;;;;24.54;39.90;101663.41;108502;1259;419674;-84
2023/07/10 10:52:26;;;;;;;;;;;;;;;24.57;40.07;101661.73;108662;1259;124327;-83
2023/07/10 10:54:59;;;;;;;;;;;;;;;24.59;39.96;101657.20;108847;1259;66866;-84
2023/07/10 10:57:35;;;;;;;;;;;;;;;24.60;39.96;101654.69;108506;1259;124202;-83
2023/07/10 11:00:21;;;;;;;;;;;;;;;24.61;39.69;101654.48;108670;1259;59373;-84
2023/07/10 11:02:48;;;;;;;;;;;;;;;24.71;39.99;101649.61;108692;1259;124317;-83
2023/07/10 11:05:17;;;;;;;;;;;;;;;24.88;39.59;101649.28;108800;1259;73472;-83
2023/07/10 11:07:45;;;;;;;;;;;;;;;24.92;39.36;101647.23;108760;1259;65760;-83
2023/07/10 11:10:17;;;;;;;;;;;;;;;25.07;39.33;101642.96;108667;1259;124368;-83
2023/07/10 11:12:44;;;;;;;;;;;;;;;25.28;39.25;101641.81;108617;1259;59448;-83
2023/07/10 11:15:17;;;;;;;;;;;;;;;25.47;39.28;101635.64;108649;1258;124262;-83
2023/07/10 11:17:49;;;;;;;;;;;;;;;25.66;39.14;101637.55;108709;1259;75679;-83
2023/07/10 11:20:16;;;;;;;;;;;;;;;25.76;38.90;101634.60;108698;1259;66207;-84
2023/07/10 11:22:53;;;;;;;;;;;;;;;25.82;39.17;101640.04;108593;1259;124314;-83
2023/07/10 11:25:50;;;;;;;;;;;;;;;;;;;;;
2023/07/10 11:28:17;;;;;;;;;;;;;;;26.10;38.97;101637.05;108617;1259;124083;-83
2023/07/10 11:30:44;;;;;;;;;;;;;;;26.19;38.98;101642.36;108773;1259;73784;-83
2023/07/10 11:33:16;;;;;;;;;;;;;;;26.25;38.63;101636.84;108555;1259;125038;-83
2023/07/10 11:36:21;;;;;;;;;;;;;;;26.33;38.56;101634.81;108655;1260;71569;-83
2023/07/10 11:38:58;;;;;;;;;;;;;;;26.46;38.52;101632.84;108131;1268;124484;-83
2023/07/10 11:41:29;;;;;;;;;;;;;;;26.64;38.51;101629.86;108314;1267;59790;-83
2023/07/10 11:44:15;;;;;;;;;;;;;;;26.78;38.25;101621.00;108555;1259;74410;-83
2023/07/10 11:47:04;;;;;;;;;;;;;;;26.94;38.22;101625.22;108546;1259;123857;-84
2023/07/10 11:49:40;;;;;;;;;;;;;;;26.99;38.21;101624.35;108763;1272;71190;-84
2023/07/10 11:52:13;;;;;;;;;;;;;;;27.06;38.34;101625.24;108597;1264;124684;-84
2023/07/10 11:54:40;;;;;;;;;;;;;;;27.11;38.21;101622.70;108763;1259;60180;-83
2023/07/10 11:57:11;;;;;;;;;;;;;;;27.15;38.06;101623.16;108687;1259;124235;-84
2023/07/10 11:59:38;;;;;;;;;;;;;;;27.21;38.04;101621.89;108629;1259;67089;-84
2023/07/10 12:02:14;;;;;;;;;;;;;;;27.24;38.05;101613.88;108708;1259;72689;-84
2023/07/10 12:04:41;;;;;;;;;;;;;;;27.32;37.97;101609.88;108536;1260;125326;-84
2023/07/10 12:07:11;;;;;;;;;;;;;;;27.38;37.89;101609.33;108745;1259;60456;-84
2023/07/10 12:09:41;;;;;;;;;;;;;;;27.38;37.77;101606.10;108474;1259;125568;-85
2023/07/10 12:12:10;;;;;;;;;;;;;;;27.35;37.62;101604.55;108701;1259;67056;-85
2023/07/10 12:14:37;;;;;;;;;;;;;;;27.42;37.70;101603.79;108679;1259;124385;-85
2023/07/10 12:17:04;;;;;;;;;;;;;;;27.50;37.76;101604.79;108779;1259;59202;-85
2023/07/10 12:19:34;;;;;;;;;;;;;;;27.61;37.68;101608.23;108694;1259;59154;-82
2023/07/10 12:22:02;;;;;;;;;;;;;;;27.59;37.22;101604.50;108709;1259;124083;-84
2023/07/10 12:24:29;;;;;;;;;;;;;;;27.37;37.16;101599.11;108700;1259;66972;-84
2023/07/10 12:26:56;;;;;;;;;;;;;;;27.29;37.10;101609.43;108745;1259;124563;-84
2023/07/10 12:29:23;;;;;;;;;;;;;;;27.17;37.12;101603.81;108644;1259;59161;-85
2023/07/10 12:31:50;;;;;;;;;;;;;;;27.07;37.25;101600.16;108802;1258;59076;-82
2023/07/10 12:34:28;;;;;;;;;;;;;;;27.06;37.08;101600.38;108645;1259;124265;-83
2023/07/10 12:36:55;;;;;;;;;;;;;;;27.07;37.15;101598.19;108581;1259;65564;-83
2023/07/10 12:39:22;;;;;;;;;;;;;;;27.05;37.07;101592.14;108495;1259;124259;-84
2023/07/10 12:41:53;;;;;;;;;;;;;;;26.95;36.86;101585.04;108682;1259;59590;-83
2023/07/10 12:44:20;;;;;;;;;;;;;;;26.78;36.60;101577.62;108829;1258;59054;-83
2023/07/10 12:46:52;;;;;;;;;;;;;;;26.68;36.30;101576.65;108734;1259;124392;-84
2023/07/10 12:49:19;;;;;;;;;;;;;;;26.62;36.45;101578.61;108812;1259;67130;-86
2023/07/10 12:51:47;;;;;;;;;;;;;;;26.49;36.55;101576.25;108630;1259;124129;-86
2023/07/10 12:54:27;;;;;;;;;;;;;;;26.35;36.91;101576.64;108790;1259;59086;-86
2023/07/10 12:56:54;;;;;;;;;;;;;;;26.30;37.21;101577.50;108621;1259;124861;-87
2023/07/10 12:59:31;;;;;;;;;;;;;;;26.27;37.41;101585.50;108736;1259;74864;-87
2023/07/10 13:02:01;;;;;;;;;;;;;;;26.27;37.36;101584.41;108805;1259;67115;-86
2023/07/10 13:04:29;;;;;;;;;;;;;;;26.25;37.73;101587.54;108679;1259;124705;-86
2023/07/10 13:07:13;;;;;;;;;;;;;;;26.11;37.92;101582.14;108827;1259;59152;-86
2023/07/10 13:09:40;;;;;;;;;;;;;;;25.98;38.34;101579.08;108761;1262;123066;-87
2023/07/10 13:12:19;;;;;;;;;;;;;;;25.91;38.67;101582.83;108741;1259;74528;-85
2023/07/10 13:14:46;;;;;;;;;;;;;;;25.75;38.71;101579.27;108659;1259;124223;-84
2023/07/10 13:17:13;;;;;;;;;;;;;;;25.67;38.37;101572.81;108787;1259;73272;-84
2023/07/10 13:19:40;;;;;;;;;;;;;;;25.65;38.54;101570.17;108764;1259;59575;-85
2023/07/10 13:22:11;;;;;;;;;;;;;;;25.69;38.76;101566.48;108677;1259;124101;-84
2023/07/10 13:24:38;;;;;;;;;;;;;;;25.73;38.48;101563.67;108717;1259;74527;-84
2023/07/10 13:27:12;;;;;;;;;;;;;;;25.66;38.77;101560.25;108688;1259;124341;-84
2023/07/10 13:29:39;;;;;;;;;;;;;;;25.64;39.07;101561.56;108818;1259;72616;-84
2023/07/10 13:32:09;;;;;;;;;;;;;;;25.57;39.33;101568.39;108806;1259;59250;-84
2023/07/10 13:34:36;;;;;;;;;;;;;;;25.44;39.52;101568.70;108662;1259;124278;-84
2023/07/10 13:37:22;;;;;;;;;;;;;;;25.27;39.80;101562.98;108773;1259;73988;-84
2023/07/10 13:39:50;;;;;;;;;;;;;;;25.16;40.63;101560.34;108556;1259;124610;-84
2023/07/10 13:42:17;;;;;;;;;;;;;;;25.04;41.07;101556.48;108670;1259;73007;-84
2023/07/10 13:44:44;;;;;;;;;;;;;;;24.92;41.22;101547.04;108737;1258;124207;-84
2023/07/10 13:47:12;;;;;;;;;;;;;;;24.94;41.56;101545.92;108772;1259;58970;-84
2023/07/10 13:49:40;;;;;;;;;;;;;;;24.96;41.81;101539.05;108723;1260;73191;-84
2023/07/10 13:52:11;;;;;;;;;;;;;;;24.81;42.14;101533.99;108594;1258;124235;-84
2023/07/10 13:54:38;;;;;;;;;;;;;;;24.73;42.48;101531.30;108726;1258;72579;-84
2023/07/10 13:57:11;;;;;;;;;;;;;;;24.76;42.48;101529.10;108691;1259;124720;-84
2023/07/10 13:59:38;;;;;;;;;;;;;;;24.76;42.56;101524.78;108865;1259;59012;-84
2023/07/10 14:02:24;;;;;;;;;;;;;;;24.78;42.64;101522.77;108766;1259;74292;-84
2023/07/10 14:04:51;;;;;;;;;;;;;;;24.85;42.76;101521.00;108763;1259;66828;-86
2023/07/10 14:07:19;;;;;;;;;;;;;;;24.85;42.70;101522.59;108829;1258;72674;-86